Terminal Aerodrome Forecast
Issued by NWS

Home | Current Version | Previous Version | Text Only | Print | Product List | Glossary On
Versions: 1 2 3 4 5 6 7 8 9 10 11 12 13 14 15 16 17 18
615
FTAK31 PAJN 290320 AAA
TAFASI
TAF AMD
PASI 290320Z 2903/2924 VRB04KT P6SM VCSH BKN035
      TEMPO 2903/2904 -SHRA BKN025 OVC035
     FM290400 VRB06KT P6SM BKN050
     FM291800 34008KT P6SM SCT050=

USA.gov is the U.S. government's official web portal to all federal, state and local government web resources and services.